createdAt,value
2018-06-24T00:00:08.077Z,3.80
2018-06-24T00:02:37.465Z,4.20
2018-06-24T00:05:06.777Z,4.20
2018-06-24T00:07:36.114Z,3.53
2018-06-24T00:10:05.536Z,4.50
2018-06-24T00:12:34.857Z,4.30
2018-06-24T00:15:04.490Z,3.67
2018-06-24T00:17:33.788Z,4.40
2018-06-24T00:20:03.116Z,4.77
2018-06-24T00:22:32.378Z,4.30
2018-06-24T00:25:01.640Z,4.40
2018-06-24T00:27:30.957Z,4.77
2018-06-24T00:30:00.242Z,4.17
2018-06-24T00:32:29.513Z,4.00
2018-06-24T00:34:58.815Z,5.10
2018-06-24T00:37:28.138Z,4.37
2018-06-24T00:39:57.414Z,4.67
2018-06-24T00:42:26.709Z,4.50
2018-06-24T00:44:55.775Z,4.83
2018-06-24T00:47:25.260Z,5.03
2018-06-24T00:49:54.513Z,5.10
2018-06-24T00:52:23.804Z,4.57
2018-06-24T00:54:52.852Z,4.60
2018-06-24T00:57:22.112Z,5.93
2018-06-24T01:00:02.561Z,4.80
2018-06-24T01:02:32.041Z,5.20
2018-06-24T01:05:01.339Z,5.43
2018-06-24T01:07:30.723Z,4.70
2018-06-24T01:10:00.058Z,3.77
2018-06-24T01:12:29.519Z,5.90
2018-06-24T01:14:59.713Z,5.50
2018-06-24T01:17:29.274Z,5.83
2018-06-24T01:19:59.725Z,5.50
2018-06-24T01:22:29.066Z,4.60
2018-06-24T01:24:58.389Z,5.17
2018-06-24T01:27:27.698Z,5.90
2018-06-24T01:29:56.954Z,5.03
2018-06-24T01:32:26.230Z,4.60
2018-06-24T01:34:55.622Z,5.67
2018-06-24T01:37:24.590Z,4.67
2018-06-24T01:39:53.717Z,5.00
2018-06-24T01:42:23.047Z,5.20
2018-06-24T01:44:52.362Z,4.83
2018-06-24T01:47:21.643Z,5.27
2018-06-24T01:49:50.928Z,5.10
2018-06-24T01:52:20.225Z,5.20
2018-06-24T01:54:49.556Z,5.30
2018-06-24T01:57:18.940Z,7.50
2018-06-24T01:59:48.272Z,5.70
2018-06-24T02:02:17.657Z,5.80
2018-06-24T02:04:47.067Z,6.23
2018-06-24T02:07:16.447Z,5.37
2018-06-24T02:09:45.729Z,6.00
2018-06-24T02:12:15.009Z,5.43
2018-06-24T02:14:44.321Z,5.40
2018-06-24T02:17:13.575Z,5.33
2018-06-24T02:19:42.884Z,5.90
2018-06-24T02:22:12.264Z,6.53
2018-06-24T02:24:41.560Z,6.00
2018-06-24T02:27:10.822Z,5.83
2018-06-24T02:29:40.196Z,5.00
2018-06-24T02:32:09.489Z,5.50
2018-06-24T02:34:38.850Z,7.20
2018-06-24T02:37:08.243Z,4.87
2018-06-24T02:39:37.496Z,6.13
2018-06-24T02:42:06.804Z,5.77
2018-06-24T02:44:36.081Z,6.10
2018-06-24T02:47:05.433Z,6.23
2018-06-24T02:49:34.693Z,6.37
2018-06-24T02:52:04.045Z,6.30
2018-06-24T02:54:33.354Z,5.60
2018-06-24T02:57:02.633Z,6.17
2018-06-24T02:59:32.034Z,6.40
2018-06-24T03:02:01.308Z,6.87
2018-06-24T03:04:30.564Z,5.70
2018-06-24T03:06:59.836Z,5.77
2018-06-24T03:09:29.180Z,5.90
2018-06-24T03:11:58.512Z,6.93
2018-06-24T03:14:27.500Z,6.10
2018-06-24T03:16:56.498Z,5.90
2018-06-24T03:19:25.769Z,6.57
2018-06-24T03:21:55.151Z,6.30
2018-06-24T03:24:24.520Z,6.00
2018-06-24T03:26:53.828Z,5.70
2018-06-24T03:29:23.183Z,5.47
2018-06-24T03:31:53.031Z,5.27
2018-06-24T03:34:22.398Z,6.93
2018-06-24T03:36:51.668Z,6.23
2018-06-24T03:39:20.946Z,6.60
2018-06-24T03:41:50.294Z,5.93
2018-06-24T03:44:19.680Z,6.20
2018-06-24T03:46:48.980Z,6.43
2018-06-24T03:49:18.253Z,6.33
2018-06-24T03:51:47.193Z,6.80
2018-06-24T03:54:16.373Z,6.57
2018-06-24T03:56:45.717Z,5.40
2018-06-24T03:59:15.111Z,6.00
2018-06-24T04:01:44.389Z,4.60
2018-06-24T04:04:13.739Z,5.77
2018-06-24T04:06:43.028Z,5.07
2018-06-24T04:09:12.354Z,5.90
2018-06-24T04:11:41.687Z,5.93
2018-06-24T04:14:10.988Z,5.90
2018-06-24T04:16:40.289Z,6.63
2018-06-24T04:19:09.609Z,5.40
2018-06-24T04:21:38.889Z,5.60
2018-06-24T04:24:08.144Z,4.60
2018-06-24T04:26:37.405Z,6.00
2018-06-24T04:29:06.679Z,4.40
2018-06-24T04:31:36.254Z,6.97
2018-06-24T04:34:05.587Z,5.10
2018-06-24T04:36:34.856Z,5.73
2018-06-24T04:39:05.953Z,5.47
2018-06-24T04:41:35.282Z,6.13
2018-06-24T04:44:04.329Z,5.13
2018-06-24T04:46:33.488Z,5.03
2018-06-24T04:49:02.209Z,6.27
2018-06-24T04:51:31.121Z,4.73
2018-06-24T04:54:00.157Z,5.60
2018-06-24T04:56:29.589Z,5.30
2018-06-24T04:58:59.241Z,5.27
2018-06-24T05:01:28.530Z,5.13
2018-06-24T05:03:57.874Z,5.53
2018-06-24T05:06:27.203Z,6.00
2018-06-24T05:08:56.552Z,4.80
2018-06-24T05:11:25.840Z,4.70
2018-06-24T05:13:55.109Z,5.20
2018-06-24T05:16:24.434Z,5.57
2018-06-24T05:18:53.754Z,5.23
2018-06-24T05:21:23.017Z,6.60
2018-06-24T05:23:52.299Z,4.77
2018-06-24T05:26:21.567Z,5.33
2018-06-24T05:28:50.839Z,5.10
2018-06-24T05:31:20.216Z,5.27
2018-06-24T05:33:49.604Z,5.80
2018-06-24T05:36:18.979Z,4.93
2018-06-24T05:38:48.253Z,5.20
2018-06-24T05:41:17.553Z,4.90
2018-06-24T05:43:46.839Z,5.50
2018-06-24T05:46:16.149Z,5.87
2018-06-24T05:48:45.516Z,5.30
2018-06-24T05:51:14.758Z,5.60
2018-06-24T05:53:44.051Z,5.70
2018-06-24T05:56:13.558Z,5.00
2018-06-24T05:58:42.813Z,5.83
2018-06-24T06:01:11.773Z,5.60
2018-06-24T06:03:40.963Z,5.80
2018-06-24T06:06:10.260Z,4.53
2018-06-24T06:08:39.510Z,5.57
2018-06-24T06:11:08.783Z,5.80
2018-06-24T06:13:37.679Z,5.40
2018-06-24T06:16:06.862Z,5.23
2018-06-24T06:18:36.145Z,5.00
2018-06-24T06:21:05.480Z,5.13
2018-06-24T06:23:34.763Z,4.87
2018-06-24T06:26:04.062Z,4.50
2018-06-24T06:28:33.713Z,5.00
2018-06-24T06:31:03.103Z,4.73
2018-06-24T06:33:32.377Z,4.53
2018-06-24T06:36:01.642Z,4.50
2018-06-24T06:38:30.914Z,4.40
2018-06-24T06:41:00.246Z,4.47
2018-06-24T06:43:29.487Z,4.00
2018-06-24T06:45:58.788Z,4.13
2018-06-24T06:48:28.923Z,5.00
2018-06-24T06:50:58.286Z,4.33
2018-06-24T06:53:27.557Z,3.87
2018-06-24T06:55:56.853Z,4.10
2018-06-24T06:58:25.947Z,4.00
2018-06-24T07:00:54.995Z,4.07
2018-06-24T07:03:24.382Z,3.23
2018-06-24T07:05:53.709Z,3.43
2018-06-24T07:08:22.693Z,3.43
2018-06-24T07:10:52.012Z,3.87
2018-06-24T07:13:21.400Z,4.40
2018-06-24T07:15:50.970Z,3.60
2018-06-24T07:18:20.278Z,3.80
2018-06-24T07:20:49.623Z,4.17
2018-06-24T07:23:18.902Z,2.90
2018-06-24T07:25:48.210Z,3.73
2018-06-24T07:28:17.455Z,4.37
2018-06-24T07:30:47.198Z,3.33
2018-06-24T07:33:17.012Z,3.60
2018-06-24T07:35:46.583Z,3.20
2018-06-24T07:38:15.873Z,3.20
2018-06-24T07:40:45.900Z,3.70
2018-06-24T07:43:15.201Z,3.87
2018-06-24T07:45:44.561Z,3.83
2018-06-24T07:48:14.109Z,3.30
2018-06-24T07:50:43.482Z,3.67
2018-06-24T07:53:12.746Z,3.63
2018-06-24T07:55:42.051Z,3.77
2018-06-24T07:58:11.344Z,4.03
2018-06-24T08:00:40.672Z,3.63
2018-06-24T08:03:10.003Z,3.47
2018-06-24T08:05:39.301Z,3.50
2018-06-24T08:08:08.710Z,3.47
2018-06-24T08:10:37.973Z,3.53
2018-06-24T08:13:07.323Z,3.40
2018-06-24T08:15:36.762Z,3.60
2018-06-24T08:18:06.070Z,4.03
2018-06-24T08:20:34.985Z,3.00
2018-06-24T08:23:04.196Z,4.20
2018-06-24T08:25:33.506Z,4.03
2018-06-24T08:28:02.807Z,3.97
2018-06-24T08:30:32.237Z,3.90
2018-06-24T08:33:01.556Z,3.40
2018-06-24T08:35:31.048Z,3.40
2018-06-24T08:38:00.328Z,3.57
2018-06-24T08:40:30.273Z,3.23
2018-06-24T08:42:59.620Z,3.33
2018-06-24T08:45:28.980Z,3.60
2018-06-24T08:47:58.227Z,3.90
2018-06-24T08:50:27.495Z,4.50
2018-06-24T08:52:56.795Z,3.80
2018-06-24T08:55:26.076Z,3.40
2018-06-24T08:57:54.996Z,3.20
2018-06-24T09:00:24.244Z,4.10
2018-06-24T09:02:53.577Z,3.60
2018-06-24T09:05:22.962Z,3.27
2018-06-24T09:07:52.369Z,4.10
2018-06-24T09:10:21.298Z,4.00
2018-06-24T09:12:51.041Z,3.60
2018-06-24T09:15:20.339Z,4.67
2018-06-24T09:17:49.883Z,5.10
2018-06-24T09:20:19.319Z,6.23
2018-06-24T09:22:48.734Z,6.73
2018-06-24T09:25:18.117Z,5.10
2018-06-24T09:27:47.763Z,5.77
2018-06-24T09:30:17.164Z,4.90
2018-06-24T09:32:46.438Z,4.90
2018-06-24T09:35:15.736Z,5.00
2018-06-24T09:37:46.053Z,5.27
2018-06-24T09:40:15.339Z,6.20
2018-06-24T09:42:44.874Z,5.53
2018-06-24T09:45:14.134Z,5.63
2018-06-24T09:47:43.534Z,5.90
2018-06-24T09:50:12.857Z,6.17
2018-06-24T09:52:42.204Z,4.87
2018-06-24T09:55:11.165Z,5.60
2018-06-24T09:57:40.390Z,5.50
2018-06-24T10:00:15.254Z,6.00
2018-06-24T10:02:44.558Z,5.13
2018-06-24T10:05:13.858Z,5.70
2018-06-24T10:07:43.404Z,4.73
2018-06-24T10:10:12.687Z,4.43
2018-06-24T10:12:41.922Z,4.40
2018-06-24T10:15:11.177Z,4.30
2018-06-24T10:17:40.457Z,4.67
2018-06-24T10:20:09.739Z,4.17
2018-06-24T10:22:39.023Z,4.30
2018-06-24T10:25:08.355Z,4.47
2018-06-24T10:27:37.610Z,3.63
2018-06-24T10:30:07.429Z,3.20
2018-06-24T10:32:36.737Z,4.67
2018-06-24T10:35:06.030Z,4.37
2018-06-24T10:37:35.339Z,3.90
2018-06-24T10:40:04.683Z,3.80
2018-06-24T10:42:34.044Z,3.20
2018-06-24T10:45:03.648Z,2.60
2018-06-24T10:47:32.969Z,2.00
2018-06-24T10:50:02.348Z,2.37
2018-06-24T10:52:31.635Z,2.67
2018-06-24T10:55:00.931Z,2.53
2018-06-24T10:57:30.218Z,3.37
2018-06-24T10:59:59.495Z,3.60
2018-06-24T11:02:28.841Z,3.60
2018-06-24T11:04:58.201Z,3.33
2018-06-24T11:07:27.497Z,2.70
2018-06-24T11:09:56.810Z,3.03
2018-06-24T11:12:26.147Z,2.40
2018-06-24T11:14:55.523Z,2.50
2018-06-24T11:17:24.845Z,2.40
2018-06-24T11:19:54.218Z,2.63
2018-06-24T11:22:23.546Z,3.23
2018-06-24T11:24:52.863Z,1.93
2018-06-24T11:27:22.179Z,2.33
2018-06-24T11:29:51.520Z,2.00
2018-06-24T11:32:20.814Z,2.10
2018-06-24T11:34:50.142Z,2.30
2018-06-24T11:37:19.461Z,2.27
2018-06-24T11:39:48.704Z,2.20
2018-06-24T11:42:17.981Z,2.50
2018-06-24T11:44:47.258Z,1.70
2018-06-24T11:47:16.506Z,2.40
2018-06-24T11:49:45.806Z,1.97
2018-06-24T11:52:15.336Z,2.03
2018-06-24T11:54:44.608Z,1.77
2018-06-24T11:57:13.869Z,1.73
2018-06-24T11:59:43.144Z,2.67
2018-06-24T12:02:12.407Z,2.73
2018-06-24T12:04:41.714Z,2.80
2018-06-24T12:07:10.989Z,3.03
2018-06-24T12:09:41.701Z,2.20
2018-06-24T12:12:10.970Z,2.33
2018-06-24T12:14:40.331Z,1.90
2018-06-24T12:17:09.599Z,2.90
2018-06-24T12:19:38.920Z,1.97
2018-06-24T12:22:08.203Z,1.90
2018-06-24T12:24:37.520Z,1.90
2018-06-24T12:27:06.850Z,2.07
2018-06-24T12:29:36.179Z,2.00
2018-06-24T12:32:05.501Z,2.13
2018-06-24T12:34:34.796Z,2.80
2018-06-24T12:37:04.096Z,2.97
2018-06-24T12:39:33.428Z,2.43
2018-06-24T12:42:02.728Z,1.93
2018-06-24T12:44:31.720Z,2.30
2018-06-24T12:47:00.949Z,2.47
2018-06-24T12:49:30.358Z,2.50
2018-06-24T12:51:59.725Z,2.33
2018-06-24T12:54:29.061Z,2.60
2018-06-24T12:56:58.429Z,2.80
2018-06-24T12:59:27.973Z,2.53
2018-06-24T13:01:57.040Z,2.90
2018-06-24T13:04:26.357Z,2.90
2018-06-24T13:06:55.658Z,2.23
2018-06-24T13:09:25.078Z,1.97
2018-06-24T13:11:54.548Z,2.00
2018-06-24T13:14:23.854Z,2.10
2018-06-24T13:16:53.127Z,2.93
2018-06-24T13:19:22.448Z,2.53
2018-06-24T13:21:51.857Z,2.57
2018-06-24T13:24:21.543Z,2.27
2018-06-24T13:26:50.608Z,2.00
2018-06-24T13:29:19.728Z,2.40
2018-06-24T13:31:49.136Z,1.97
2018-06-24T13:34:18.456Z,2.47
2018-06-24T13:36:47.888Z,2.37
2018-06-24T13:39:17.165Z,1.60
2018-06-24T13:41:46.499Z,2.10
2018-06-24T13:44:16.797Z,2.30
2018-06-24T13:46:46.053Z,2.03
2018-06-24T13:49:15.393Z,2.80
2018-06-24T13:51:44.670Z,2.40
2018-06-24T13:54:14.057Z,2.23
2018-06-24T13:56:43.319Z,1.83
2018-06-24T13:59:12.588Z,2.20
2018-06-24T14:01:41.929Z,2.80
2018-06-24T14:04:11.205Z,2.90
2018-06-24T14:06:40.562Z,2.20
2018-06-24T14:09:12.364Z,2.97
2018-06-24T14:11:41.623Z,3.00
2018-06-24T14:14:10.993Z,3.27
2018-06-24T14:16:40.319Z,3.13
2018-06-24T14:19:09.774Z,2.57
2018-06-24T14:21:39.066Z,3.30
2018-06-24T14:24:08.327Z,2.43
2018-06-24T14:26:37.555Z,3.10
2018-06-24T14:29:06.381Z,2.80
2018-06-24T14:31:35.545Z,2.97
2018-06-24T14:34:04.950Z,2.30
2018-06-24T14:36:34.263Z,2.93
2018-06-24T14:39:04.606Z,2.93
2018-06-24T14:41:33.955Z,2.90
2018-06-24T14:44:03.460Z,2.90
2018-06-24T14:46:32.821Z,3.07
2018-06-24T14:49:02.481Z,2.50
2018-06-24T14:51:31.767Z,2.30
2018-06-24T14:54:01.703Z,2.30
2018-06-24T14:56:30.968Z,2.30
2018-06-24T14:59:00.268Z,2.33
2018-06-24T15:01:29.636Z,2.33
2018-06-24T15:03:58.861Z,2.53
2018-06-24T15:06:28.318Z,2.00
2018-06-24T15:08:57.680Z,2.40
2018-06-24T15:11:27.004Z,2.70
2018-06-24T15:13:56.489Z,1.90
2018-06-24T15:16:25.619Z,2.23
2018-06-24T15:18:54.899Z,1.90
2018-06-24T15:21:24.241Z,1.60
2018-06-24T15:23:53.664Z,1.50
2018-06-24T15:26:22.931Z,1.67
2018-06-24T15:28:52.308Z,1.73
2018-06-24T15:31:21.724Z,1.63
2018-06-24T15:33:51.022Z,1.53
2018-06-24T15:36:20.304Z,1.63
2018-06-24T15:38:49.624Z,1.70
2018-06-24T15:41:18.932Z,2.03
2018-06-24T15:43:48.282Z,1.43
2018-06-24T15:46:17.596Z,1.33
2018-06-24T15:48:46.992Z,2.10
2018-06-24T15:51:18.139Z,1.80
2018-06-24T15:53:48.205Z,1.83
2018-06-24T15:56:17.522Z,1.77
2018-06-24T15:58:46.873Z,1.80
2018-06-24T16:01:16.129Z,2.37
2018-06-24T16:03:45.506Z,1.67
2018-06-24T16:06:15.058Z,2.07
2018-06-24T16:08:44.009Z,3.60
2018-06-24T16:11:13.306Z,3.33
2018-06-24T16:13:42.966Z,4.17
2018-06-24T16:16:12.249Z,2.13
2018-06-24T16:18:41.604Z,2.17
2018-06-24T16:21:11.188Z,2.00
2018-06-24T16:23:40.762Z,2.20
2018-06-24T16:26:10.102Z,1.90
2018-06-24T16:28:39.441Z,2.07
2018-06-24T16:31:08.756Z,1.87
2018-06-24T16:33:38.162Z,2.23
2018-06-24T16:36:07.679Z,2.20
2018-06-24T16:38:36.640Z,1.87
2018-06-24T16:41:05.944Z,2.30
2018-06-24T16:43:36.171Z,1.70
2018-06-24T16:46:05.644Z,2.50
2018-06-24T16:48:34.935Z,2.37
2018-06-24T16:51:04.302Z,2.30
2018-06-24T16:53:33.621Z,2.00
2018-06-24T16:56:02.908Z,2.00
2018-06-24T16:58:32.087Z,1.50
2018-06-24T17:01:01.429Z,2.00
2018-06-24T17:03:30.734Z,1.93
2018-06-24T17:06:01.404Z,1.60
2018-06-24T17:08:30.688Z,1.97
2018-06-24T17:11:00.011Z,1.80
2018-06-24T17:13:29.313Z,2.10
2018-06-24T17:15:58.618Z,2.47
2018-06-24T17:18:27.887Z,1.60
2018-06-24T17:20:57.223Z,2.97
2018-06-24T17:23:26.565Z,2.03
2018-06-24T17:25:55.874Z,1.87
2018-06-24T17:28:25.141Z,1.90
2018-06-24T17:30:54.424Z,1.53
2018-06-24T17:33:23.695Z,1.87
2018-06-24T17:35:53.026Z,1.43
2018-06-24T17:38:22.517Z,1.90
2018-06-24T17:40:51.934Z,1.80
2018-06-24T17:43:21.457Z,2.30
2018-06-24T17:45:51.242Z,1.93
2018-06-24T17:48:20.624Z,1.70
2018-06-24T17:50:50.005Z,1.97
2018-06-24T17:53:19.526Z,1.90
2018-06-24T17:55:48.941Z,2.20
2018-06-24T17:58:18.303Z,2.20
2018-06-24T18:00:47.726Z,2.00
2018-06-24T18:03:17.148Z,1.87
2018-06-24T18:05:46.671Z,1.90
2018-06-24T18:08:16.080Z,2.13
2018-06-24T18:10:45.327Z,2.40
2018-06-24T18:13:14.896Z,3.67
2018-06-24T18:15:44.278Z,3.17
2018-06-24T18:18:13.731Z,2.53
2018-06-24T18:20:43.132Z,1.87
2018-06-24T18:23:12.538Z,2.27
2018-06-24T18:25:42.224Z,2.07
2018-06-24T18:28:11.904Z,1.80
2018-06-24T18:30:41.099Z,2.03
2018-06-24T18:33:10.641Z,2.10
2018-06-24T18:35:40.049Z,2.07
2018-06-24T18:38:09.303Z,2.00
2018-06-24T18:40:38.715Z,2.03
2018-06-24T18:43:08.020Z,1.90
2018-06-24T18:45:37.341Z,2.30
2018-06-24T18:48:06.705Z,1.77
2018-06-24T18:50:36.011Z,1.97
2018-06-24T18:53:05.362Z,2.17
2018-06-24T18:55:34.682Z,1.90
2018-06-24T18:58:04.267Z,1.70
2018-06-24T19:00:33.845Z,1.93
2018-06-24T19:03:03.473Z,2.20
2018-06-24T19:05:32.617Z,1.87
2018-06-24T19:08:01.962Z,2.40
2018-06-24T19:10:30.920Z,2.00
2018-06-24T19:13:00.071Z,1.83
2018-06-24T19:15:29.605Z,1.93
2018-06-24T19:17:58.990Z,1.80
2018-06-24T19:20:28.501Z,1.20
2018-06-24T19:22:57.998Z,1.57
2018-06-24T19:25:27.263Z,2.10
2018-06-24T19:27:56.575Z,2.07
2018-06-24T19:30:25.844Z,2.00
2018-06-24T19:32:55.429Z,1.43
2018-06-24T19:35:24.875Z,2.00
2018-06-24T19:37:54.166Z,1.77
2018-06-24T19:40:23.597Z,1.60
2018-06-24T19:42:53.357Z,1.90
2018-06-24T19:45:22.698Z,2.00
2018-06-24T19:47:51.749Z,1.70
2018-06-24T19:50:20.950Z,1.90
2018-06-24T19:52:52.887Z,1.40
2018-06-24T19:55:23.043Z,1.60
2018-06-24T19:57:52.193Z,2.23
2018-06-24T20:00:21.154Z,1.50
2018-06-24T20:02:50.345Z,1.53
2018-06-24T20:05:19.797Z,1.40
2018-06-24T20:07:49.205Z,1.67
2018-06-24T20:10:18.553Z,1.60
2018-06-24T20:12:47.953Z,1.37
2018-06-24T20:15:17.324Z,1.50
2018-06-24T20:17:46.618Z,1.30
2018-06-24T20:20:15.991Z,2.10
2018-06-24T20:22:45.256Z,1.40
2018-06-24T20:25:14.529Z,1.40
2018-06-24T20:27:43.854Z,1.30
2018-06-24T20:30:13.157Z,1.20
2018-06-24T20:32:42.437Z,1.40
2018-06-24T20:35:11.688Z,1.20
2018-06-24T20:37:40.977Z,1.50
2018-06-24T20:40:10.238Z,1.37
2018-06-24T20:42:39.560Z,1.60
2018-06-24T20:45:08.485Z,1.73
2018-06-24T20:47:37.657Z,1.60
2018-06-24T20:50:07.091Z,1.40
2018-06-24T20:52:36.327Z,1.47
2018-06-24T20:55:06.000Z,1.53
2018-06-24T20:57:35.327Z,1.50
2018-06-24T21:00:05.277Z,1.33
2018-06-24T21:02:34.573Z,1.50
2018-06-24T21:05:04.482Z,1.37
2018-06-24T21:07:33.786Z,1.50
2018-06-24T21:10:02.754Z,1.40
2018-06-24T21:12:31.879Z,1.70
2018-06-24T21:15:01.219Z,2.00
2018-06-24T21:17:30.633Z,1.60
2018-06-24T21:19:59.923Z,1.83
2018-06-24T21:22:29.351Z,2.10
2018-06-24T21:24:58.625Z,1.60
2018-06-24T21:27:27.921Z,1.67
2018-06-24T21:29:57.210Z,1.87
2018-06-24T21:32:26.629Z,1.80
2018-06-24T21:34:56.023Z,1.70
2018-06-24T21:37:25.333Z,2.40
2018-06-24T21:39:54.592Z,2.10
2018-06-24T21:42:24.306Z,2.10
2018-06-24T21:44:53.383Z,1.97
2018-06-24T21:47:22.559Z,1.90
2018-06-24T21:49:51.898Z,2.70
2018-06-24T21:52:21.256Z,2.47
2018-06-24T21:54:50.557Z,2.13
2018-06-24T21:57:19.809Z,2.40
2018-06-24T21:59:49.117Z,2.27
2018-06-24T22:02:18.363Z,1.90
2018-06-24T22:04:47.710Z,1.90
2018-06-24T22:07:16.983Z,3.10
2018-06-24T22:09:46.293Z,2.70
2018-06-24T22:12:15.218Z,2.40
2018-06-24T22:14:44.414Z,3.00
2018-06-24T22:17:13.724Z,2.70
2018-06-24T22:19:43.076Z,2.53
2018-06-24T22:22:12.368Z,2.50
2018-06-24T22:24:41.684Z,3.27
2018-06-24T22:27:11.012Z,2.57
2018-06-24T22:29:40.301Z,2.50
2018-06-24T22:32:09.913Z,2.47
2018-06-24T22:34:39.158Z,3.00
2018-06-24T22:37:08.453Z,3.60
2018-06-24T22:39:37.723Z,3.53
2018-06-24T22:42:07.010Z,3.00
2018-06-24T22:44:36.300Z,3.23
2018-06-24T22:47:05.719Z,3.33
2018-06-24T22:49:35.033Z,2.80
2018-06-24T22:52:04.385Z,2.87
2018-06-24T22:54:33.754Z,3.33
2018-06-24T22:57:03.016Z,3.20
2018-06-24T22:59:43.636Z,2.77
2018-06-24T23:02:13.137Z,3.30
2018-06-24T23:04:42.390Z,3.67
2018-06-24T23:07:11.776Z,2.60
2018-06-24T23:09:41.079Z,3.20
2018-06-24T23:12:10.433Z,3.47
2018-06-24T23:14:39.722Z,3.00
2018-06-24T23:17:08.989Z,2.50
2018-06-24T23:19:38.262Z,2.90
2018-06-24T23:22:07.531Z,2.60
2018-06-24T23:24:36.829Z,2.53
2018-06-24T23:27:06.130Z,2.70
2018-06-24T23:29:35.453Z,2.80
2018-06-24T23:32:04.708Z,2.80
2018-06-24T23:34:40.627Z,2.63
2018-06-24T23:37:10.285Z,2.17
2018-06-24T23:39:39.789Z,2.40
2018-06-24T23:42:09.457Z,2.30
2018-06-24T23:44:38.789Z,2.67
2018-06-24T23:47:08.061Z,2.23
2018-06-24T23:49:37.450Z,2.37
2018-06-24T23:52:06.407Z,2.73
2018-06-24T23:54:35.652Z,2.80
2018-06-24T23:57:05.264Z,2.30
2018-06-24T23:59:34.532Z,2.17
